sensor_id;sensor_type;location;lat;lon;timestamp;P1;durP1;ratioP1;P2;durP2;ratioP2
12780;SDS011;6454;43.304;24.344;2024-03-23T00:53:27;8.45;;;5.78;;
12780;SDS011;6454;43.304;24.344;2024-03-23T00:55:53;9.35;;;5.43;;
12780;SDS011;6454;43.304;24.344;2024-03-23T01:00:44;7.63;;;5.33;;
12780;SDS011;6454;43.304;24.344;2024-03-23T01:03:10;12.50;;;6.43;;
12780;SDS011;6454;43.304;24.344;2024-03-23T01:05:35;8.52;;;5.88;;
12780;SDS011;6454;43.304;24.344;2024-03-23T01:08:01;11.93;;;5.68;;
12780;SDS011;6454;43.304;24.344;2024-03-23T01:10:27;9.52;;;5.65;;
12780;SDS011;6454;43.304;24.344;2024-03-23T01:12:52;10.50;;;5.82;;
12780;SDS011;6454;43.304;24.344;2024-03-23T01:17:43;10.93;;;5.93;;
12780;SDS011;6454;43.304;24.344;2024-03-23T01:22:34;10.98;;;5.60;;
12780;SDS011;6454;43.304;24.344;2024-03-23T01:27:24;11.63;;;6.10;;
12780;SDS011;6454;43.304;24.344;2024-03-23T01:29:50;13.25;;;6.82;;
12780;SDS011;6454;43.304;24.344;2024-03-23T01:32:17;11.57;;;6.57;;
12780;SDS011;6454;43.304;24.344;2024-03-23T01:34:43;12.25;;;6.78;;
12780;SDS011;6454;43.304;24.344;2024-03-23T01:37:09;11.20;;;5.97;;
12780;SDS011;6454;43.304;24.344;2024-03-23T01:39:34;7.85;;;6.22;;
12780;SDS011;6454;43.304;24.344;2024-03-23T01:41:59;12.50;;;5.80;;
12780;SDS011;6454;43.304;24.344;2024-03-23T01:44:25;14.02;;;7.05;;
12780;SDS011;6454;43.304;24.344;2024-03-23T01:46:50;13.00;;;7.07;;
12780;SDS011;6454;43.304;24.344;2024-03-23T01:49:16;11.90;;;6.75;;
12780;SDS011;6454;43.304;24.344;2024-03-23T01:51:42;12.50;;;7.13;;
12780;SDS011;6454;43.304;24.344;2024-03-23T01:54:08;11.55;;;6.75;;
12780;SDS011;6454;43.304;24.344;2024-03-23T01:56:34;12.35;;;6.30;;
12780;SDS011;6454;43.304;24.344;2024-03-23T02:01:29;12.48;;;6.80;;
12780;SDS011;6454;43.304;24.344;2024-03-23T02:03:55;12.25;;;6.78;;
12780;SDS011;6454;43.304;24.344;2024-03-23T02:08:47;12.00;;;6.28;;
12780;SDS011;6454;43.304;24.344;2024-03-23T02:11:13;8.05;;;5.30;;
12780;SDS011;6454;43.304;24.344;2024-03-23T02:16:05;10.05;;;4.85;;
12780;SDS011;6454;43.304;24.344;2024-03-23T02:18:31;7.65;;;4.65;;
12780;SDS011;6454;43.304;24.344;2024-03-23T02:20:57;7.03;;;4.88;;
12780;SDS011;6454;43.304;24.344;2024-03-23T02:25:50;7.90;;;4.60;;
12780;SDS011;6454;43.304;24.344;2024-03-23T02:28:16;8.63;;;5.55;;
12780;SDS011;6454;43.304;24.344;2024-03-23T02:33:07;8.43;;;4.97;;
12780;SDS011;6454;43.304;24.344;2024-03-23T02:37:58;8.82;;;5.47;;
12780;SDS011;6454;43.304;24.344;2024-03-23T02:42:50;10.13;;;6.00;;
12780;SDS011;6454;43.304;24.344;2024-03-23T02:45:15;10.90;;;6.05;;
12780;SDS011;6454;43.304;24.344;2024-03-23T02:47:41;14.20;;;6.68;;
12780;SDS011;6454;43.304;24.344;2024-03-23T02:52:32;12.48;;;6.25;;
12780;SDS011;6454;43.304;24.344;2024-03-23T02:57:23;9.98;;;5.45;;
12780;SDS011;6454;43.304;24.344;2024-03-23T03:02:14;10.23;;;5.20;;
12780;SDS011;6454;43.304;24.344;2024-03-23T03:04:40;10.80;;;5.45;;
12780;SDS011;6454;43.304;24.344;2024-03-23T03:09:31;11.65;;;5.72;;
12780;SDS011;6454;43.304;24.344;2024-03-23T03:11:57;9.02;;;5.72;;
12780;SDS011;6454;43.304;24.344;2024-03-23T03:16:48;10.67;;;5.73;;
12780;SDS011;6454;43.304;24.344;2024-03-23T03:19:14;10.65;;;6.60;;
12780;SDS011;6454;43.304;24.344;2024-03-23T03:21:41;12.88;;;6.88;;
12780;SDS011;6454;43.304;24.344;2024-03-23T03:26:32;10.20;;;5.90;;
12780;SDS011;6454;43.304;24.344;2024-03-23T03:31:23;6.70;;;4.33;;
12780;SDS011;6454;43.304;24.344;2024-03-23T03:33:49;9.55;;;4.95;;
12780;SDS011;6454;43.304;24.344;2024-03-23T03:36:15;7.43;;;4.57;;
12780;SDS011;6454;43.304;24.344;2024-03-23T03:38:41;7.80;;;5.03;;
12780;SDS011;6454;43.304;24.344;2024-03-23T03:41:06;5.65;;;4.03;;
12780;SDS011;6454;43.304;24.344;2024-03-23T03:45:58;6.80;;;4.45;;
12780;SDS011;6454;43.304;24.344;2024-03-23T03:48:24;10.30;;;5.47;;
12780;SDS011;6454;43.304;24.344;2024-03-23T03:53:15;9.05;;;4.70;;
12780;SDS011;6454;43.304;24.344;2024-03-23T03:58:06;6.82;;;4.25;;
12780;SDS011;6454;43.304;24.344;2024-03-23T04:02:57;7.70;;;4.20;;
12780;SDS011;6454;43.304;24.344;2024-03-23T04:05:22;9.70;;;4.72;;
12780;SDS011;6454;43.304;24.344;2024-03-23T04:10:14;5.83;;;4.07;;
12780;SDS011;6454;43.304;24.344;2024-03-23T04:12:40;7.53;;;4.53;;
12780;SDS011;6454;43.304;24.344;2024-03-23T04:17:31;6.05;;;3.55;;
12780;SDS011;6454;43.304;24.344;2024-03-23T04:19:59;8.15;;;3.72;;
12780;SDS011;6454;43.304;24.344;2024-03-23T04:22:25;5.18;;;4.00;;
12780;SDS011;6454;43.304;24.344;2024-03-23T04:27:20;7.03;;;3.90;;
12780;SDS011;6454;43.304;24.344;2024-03-23T04:29:51;6.30;;;4.07;;
12780;SDS011;6454;43.304;24.344;2024-03-23T04:32:20;7.72;;;4.05;;
12780;SDS011;6454;43.304;24.344;2024-03-23T04:37:11;8.10;;;4.70;;
12780;SDS011;6454;43.304;24.344;2024-03-23T04:39:37;7.03;;;4.53;;
12780;SDS011;6454;43.304;24.344;2024-03-23T04:42:03;9.30;;;4.60;;
12780;SDS011;6454;43.304;24.344;2024-03-23T04:44:29;9.27;;;4.65;;
12780;SDS011;6454;43.304;24.344;2024-03-23T04:46:56;10.55;;;4.97;;
12780;SDS011;6454;43.304;24.344;2024-03-23T04:51:47;10.83;;;5.07;;
12780;SDS011;6454;43.304;24.344;2024-03-23T04:54:12;11.15;;;4.85;;
12780;SDS011;6454;43.304;24.344;2024-03-23T04:59:04;11.13;;;5.30;;
12780;SDS011;6454;43.304;24.344;2024-03-23T05:01:32;10.82;;;5.72;;
12780;SDS011;6454;43.304;24.344;2024-03-23T05:03:58;7.38;;;5.10;;
12780;SDS011;6454;43.304;24.344;2024-03-23T05:08:50;8.70;;;4.70;;
12780;SDS011;6454;43.304;24.344;2024-03-23T05:11:15;10.43;;;5.25;;
12780;SDS011;6454;43.304;24.344;2024-03-23T05:13:41;10.23;;;5.65;;
12780;SDS011;6454;43.304;24.344;2024-03-23T05:18:33;8.30;;;5.10;;
12780;SDS011;6454;43.304;24.344;2024-03-23T05:20:59;8.95;;;5.57;;
12780;SDS011;6454;43.304;24.344;2024-03-23T05:25:50;7.90;;;4.90;;
12780;SDS011;6454;43.304;24.344;2024-03-23T05:28:17;6.15;;;4.05;;
12780;SDS011;6454;43.304;24.344;2024-03-23T05:30:43;7.25;;;4.20;;
12780;SDS011;6454;43.304;24.344;2024-03-23T05:33:08;7.50;;;4.75;;
12780;SDS011;6454;43.304;24.344;2024-03-23T05:35:34;8.60;;;4.68;;
12780;SDS011;6454;43.304;24.344;2024-03-23T05:37:59;6.97;;;3.97;;
12780;SDS011;6454;43.304;24.344;2024-03-23T05:42:53;5.88;;;3.17;;
12780;SDS011;6454;43.304;24.344;2024-03-23T05:45:19;4.78;;;2.72;;
12780;SDS011;6454;43.304;24.344;2024-03-23T05:50:10;4.83;;;3.00;;
12780;SDS011;6454;43.304;24.344;2024-03-23T05:52:38;5.60;;;3.30;;
12780;SDS011;6454;43.304;24.344;2024-03-23T05:55:04;4.88;;;2.92;;
12780;SDS011;6454;43.304;24.344;2024-03-23T05:57:30;6.75;;;3.40;;
12780;SDS011;6454;43.304;24.344;2024-03-23T05:59:56;4.80;;;3.03;;
12780;SDS011;6454;43.304;24.344;2024-03-23T06:02:22;4.90;;;2.95;;
12780;SDS011;6454;43.304;24.344;2024-03-23T06:04:48;5.85;;;3.13;;
12780;SDS011;6454;43.304;24.344;2024-03-23T06:07:13;4.47;;;2.60;;
12780;SDS011;6454;43.304;24.344;2024-03-23T06:09:42;4.32;;;2.65;;
12780;SDS011;6454;43.304;24.344;2024-03-23T06:12:07;6.35;;;3.45;;
12780;SDS011;6454;43.304;24.344;2024-03-23T06:14:34;6.68;;;3.03;;
12780;SDS011;6454;43.304;24.344;2024-03-23T06:16:59;4.72;;;3.05;;
12780;SDS011;6454;43.304;24.344;2024-03-23T06:19:26;5.65;;;2.95;;
12780;SDS011;6454;43.304;24.344;2024-03-23T06:21:53;4.30;;;2.92;;
12780;SDS011;6454;43.304;24.344;2024-03-23T06:24:19;3.35;;;2.70;;
12780;SDS011;6454;43.304;24.344;2024-03-23T06:26:45;3.58;;;3.10;;
12780;SDS011;6454;43.304;24.344;2024-03-23T06:29:11;5.32;;;3.05;;
12780;SDS011;6454;43.304;24.344;2024-03-23T06:31:36;4.30;;;2.85;;
12780;SDS011;6454;43.304;24.344;2024-03-23T06:34:02;3.70;;;2.85;;
12780;SDS011;6454;43.304;24.344;2024-03-23T06:36:27;3.65;;;2.90;;
12780;SDS011;6454;43.304;24.344;2024-03-23T06:38:53;3.83;;;2.92;;
12780;SDS011;6454;43.304;24.344;2024-03-23T06:41:19;3.55;;;2.65;;
12780;SDS011;6454;43.304;24.344;2024-03-23T06:43:44;3.80;;;2.70;;
12780;SDS011;6454;43.304;24.344;2024-03-23T06:46:10;4.72;;;2.80;;
12780;SDS011;6454;43.304;24.344;2024-03-23T06:48:35;4.22;;;3.15;;
12780;SDS011;6454;43.304;24.344;2024-03-23T06:51:01;4.72;;;3.30;;
12780;SDS011;6454;43.304;24.344;2024-03-23T06:53:26;3.33;;;2.92;;
12780;SDS011;6454;43.304;24.344;2024-03-23T06:55:52;9.77;;;4.20;;
12780;SDS011;6454;43.304;24.344;2024-03-23T06:58:22;14.55;;;5.22;;
12780;SDS011;6454;43.304;24.344;2024-03-23T07:00:48;34.00;;;6.80;;
12780;SDS011;6454;43.304;24.344;2024-03-23T07:03:14;5.53;;;2.78;;
12780;SDS011;6454;43.304;24.344;2024-03-23T07:05:41;4.80;;;2.50;;
12780;SDS011;6454;43.304;24.344;2024-03-23T07:08:07;4.82;;;2.88;;
12780;SDS011;6454;43.304;24.344;2024-03-23T07:10:33;3.95;;;2.55;;
12780;SDS011;6454;43.304;24.344;2024-03-23T07:12:58;2.92;;;2.30;;
12780;SDS011;6454;43.304;24.344;2024-03-23T07:15:24;2.95;;;2.50;;
12780;SDS011;6454;43.304;24.344;2024-03-23T07:17:49;4.82;;;2.72;;
12780;SDS011;6454;43.304;24.344;2024-03-23T07:20:15;2.67;;;2.40;;
12780;SDS011;6454;43.304;24.344;2024-03-23T07:22:41;3.78;;;2.80;;
12780;SDS011;6454;43.304;24.344;2024-03-23T07:25:06;3.08;;;2.60;;
12780;SDS011;6454;43.304;24.344;2024-03-23T07:27:32;2.50;;;2.30;;
12780;SDS011;6454;43.304;24.344;2024-03-23T07:29:58;4.03;;;2.53;;
12780;SDS011;6454;43.304;24.344;2024-03-23T07:32:26;3.28;;;2.42;;
12780;SDS011;6454;43.304;24.344;2024-03-23T07:34:51;3.65;;;2.60;;
12780;SDS011;6454;43.304;24.344;2024-03-23T07:37:18;4.32;;;2.50;;
12780;SDS011;6454;43.304;24.344;2024-03-23T07:39:43;3.20;;;2.90;;
12780;SDS011;6454;43.304;24.344;2024-03-23T07:42:09;5.70;;;3.70;;
12780;SDS011;6454;43.304;24.344;2024-03-23T07:44:34;3.50;;;2.63;;
12780;SDS011;6454;43.304;24.344;2024-03-23T07:47:02;3.60;;;2.33;;
12780;SDS011;6454;43.304;24.344;2024-03-23T07:49:28;3.22;;;2.50;;
12780;SDS011;6454;43.304;24.344;2024-03-23T07:51:53;3.25;;;2.65;;
12780;SDS011;6454;43.304;24.344;2024-03-23T07:54:19;6.45;;;3.38;;
12780;SDS011;6454;43.304;24.344;2024-03-23T07:56:44;4.00;;;2.47;;
12780;SDS011;6454;43.304;24.344;2024-03-23T07:59:10;4.53;;;2.47;;
12780;SDS011;6454;43.304;24.344;2024-03-23T08:01:36;3.50;;;2.60;;
12780;SDS011;6454;43.304;24.344;2024-03-23T08:04:01;3.40;;;2.63;;
12780;SDS011;6454;43.304;24.344;2024-03-23T08:06:26;2.92;;;2.35;;
12780;SDS011;6454;43.304;24.344;2024-03-23T08:08:54;2.55;;;2.35;;
12780;SDS011;6454;43.304;24.344;2024-03-23T08:11:30;2.90;;;2.03;;
12780;SDS011;6454;43.304;24.344;2024-03-23T08:13:56;2.58;;;2.30;;
12780;SDS011;6454;43.304;24.344;2024-03-23T08:16:22;2.90;;;2.60;;
12780;SDS011;6454;43.304;24.344;2024-03-23T08:18:47;2.13;;;1.92;;
12780;SDS011;6454;43.304;24.344;2024-03-23T08:21:13;2.85;;;2.30;;
12780;SDS011;6454;43.304;24.344;2024-03-23T08:23:39;3.75;;;2.35;;
12780;SDS011;6454;43.304;24.344;2024-03-23T08:28:31;3.45;;;2.45;;
12780;SDS011;6454;43.304;24.344;2024-03-23T08:30:57;2.72;;;2.20;;
12780;SDS011;6454;43.304;24.344;2024-03-23T08:33:26;4.45;;;2.92;;
12780;SDS011;6454;43.304;24.344;2024-03-23T08:38:23;4.47;;;2.72;;
12780;SDS011;6454;43.304;24.344;2024-03-23T08:43:40;3.25;;;2.67;;
12780;SDS011;6454;43.304;24.344;2024-03-23T08:46:10;2.95;;;2.10;;
12780;SDS011;6454;43.304;24.344;2024-03-23T08:48:37;2.60;;;2.30;;
12780;SDS011;6454;43.304;24.344;2024-03-23T08:51:04;3.33;;;2.33;;
12780;SDS011;6454;43.304;24.344;2024-03-23T08:53:33;2.92;;;2.50;;
12780;SDS011;6454;43.304;24.344;2024-03-23T08:56:00;3.10;;;2.65;;
12780;SDS011;6454;43.304;24.344;2024-03-23T08:58:26;2.90;;;2.60;;
12780;SDS011;6454;43.304;24.344;2024-03-23T09:00:53;3.22;;;2.55;;
12780;SDS011;6454;43.304;24.344;2024-03-23T09:03:25;3.08;;;2.70;;
12780;SDS011;6454;43.304;24.344;2024-03-23T09:05:51;2.53;;;2.30;;
12780;SDS011;6454;43.304;24.344;2024-03-23T09:08:17;2.92;;;2.60;;
12780;SDS011;6454;43.304;24.344;2024-03-23T09:10:44;2.90;;;2.33;;
12780;SDS011;6454;43.304;24.344;2024-03-23T09:13:10;2.45;;;2.20;;
12780;SDS011;6454;43.304;24.344;2024-03-23T09:15:36;3.17;;;2.53;;
12780;SDS011;6454;43.304;24.344;2024-03-23T09:18:03;2.50;;;2.00;;
12780;SDS011;6454;43.304;24.344;2024-03-23T09:20:32;4.53;;;2.70;;
12780;SDS011;6454;43.304;24.344;2024-03-23T09:22:58;4.13;;;2.45;;
12780;SDS011;6454;43.304;24.344;2024-03-23T09:25:24;3.33;;;2.42;;
12780;SDS011;6454;43.304;24.344;2024-03-23T09:27:50;3.28;;;2.30;;
12780;SDS011;6454;43.304;24.344;2024-03-23T09:30:16;3.90;;;2.60;;
12780;SDS011;6454;43.304;24.344;2024-03-23T09:32:42;2.78;;;2.50;;
12780;SDS011;6454;43.304;24.344;2024-03-23T09:35:09;3.67;;;2.80;;
12780;SDS011;6454;43.304;24.344;2024-03-23T09:37:35;3.90;;;2.55;;
12780;SDS011;6454;43.304;24.344;2024-03-23T09:40:01;3.33;;;2.67;;
12780;SDS011;6454;43.304;24.344;2024-03-23T09:42:27;4.20;;;2.60;;
12780;SDS011;6454;43.304;24.344;2024-03-23T09:44:53;2.70;;;2.50;;
12780;SDS011;6454;43.304;24.344;2024-03-23T09:47:22;3.10;;;2.78;;
12780;SDS011;6454;43.304;24.344;2024-03-23T09:49:50;3.47;;;2.63;;
12780;SDS011;6454;43.304;24.344;2024-03-23T09:52:15;3.33;;;3.00;;
12780;SDS011;6454;43.304;24.344;2024-03-23T09:54:41;3.22;;;2.67;;
12780;SDS011;6454;43.304;24.344;2024-03-23T09:57:06;4.72;;;3.40;;
12780;SDS011;6454;43.304;24.344;2024-03-23T09:59:32;3.70;;;2.92;;
12780;SDS011;6454;43.304;24.344;2024-03-23T10:01:59;4.35;;;3.22;;
12780;SDS011;6454;43.304;24.344;2024-03-23T10:04:40;4.13;;;3.30;;
12780;SDS011;6454;43.304;24.344;2024-03-23T10:09:37;3.83;;;3.40;;
12780;SDS011;6454;43.304;24.344;2024-03-23T10:12:10;4.93;;;3.78;;
12780;SDS011;6454;43.304;24.344;2024-03-23T10:14:38;5.80;;;3.53;;
12780;SDS011;6454;43.304;24.344;2024-03-23T10:17:11;5.10;;;3.50;;
12780;SDS011;6454;43.304;24.344;2024-03-23T10:19:47;3.33;;;3.03;;
12780;SDS011;6454;43.304;24.344;2024-03-23T10:22:14;3.30;;;3.00;;
12780;SDS011;6454;43.304;24.344;2024-03-23T10:24:42;4.90;;;3.88;;
12780;SDS011;6454;43.304;24.344;2024-03-23T10:27:08;4.90;;;3.40;;
12780;SDS011;6454;43.304;24.344;2024-03-23T10:29:33;3.88;;;3.08;;
12780;SDS011;6454;43.304;24.344;2024-03-23T10:32:09;4.32;;;3.28;;
12780;SDS011;6454;43.304;24.344;2024-03-23T10:34:36;5.28;;;3.13;;
12780;SDS011;6454;43.304;24.344;2024-03-23T10:37:02;4.30;;;3.22;;
12780;SDS011;6454;43.304;24.344;2024-03-23T10:39:36;3.78;;;3.05;;
12780;SDS011;6454;43.304;24.344;2024-03-23T10:42:03;4.80;;;3.40;;
12780;SDS011;6454;43.304;24.344;2024-03-23T10:44:30;6.05;;;3.15;;
12780;SDS011;6454;43.304;24.344;2024-03-23T10:46:57;3.13;;;2.83;;
12780;SDS011;6454;43.304;24.344;2024-03-23T10:49:32;3.80;;;2.90;;
12780;SDS011;6454;43.304;24.344;2024-03-23T10:51:59;4.15;;;2.90;;
12780;SDS011;6454;43.304;24.344;2024-03-23T10:54:26;4.30;;;2.97;;
12780;SDS011;6454;43.304;24.344;2024-03-23T10:56:56;3.25;;;2.58;;
12780;SDS011;6454;43.304;24.344;2024-03-23T10:59:27;3.22;;;2.92;;
12780;SDS011;6454;43.304;24.344;2024-03-23T11:01:56;3.30;;;3.00;;
12780;SDS011;6454;43.304;24.344;2024-03-23T11:04:29;6.78;;;3.05;;
12780;SDS011;6454;43.304;24.344;2024-03-23T11:07:03;3.92;;;2.65;;
12780;SDS011;6454;43.304;24.344;2024-03-23T11:09:58;3.90;;;3.00;;
12780;SDS011;6454;43.304;24.344;2024-03-23T11:17:18;3.17;;;2.88;;
12780;SDS011;6454;43.304;24.344;2024-03-23T11:19:44;4.25;;;2.92;;
12780;SDS011;6454;43.304;24.344;2024-03-23T11:22:17;3.88;;;2.90;;
12780;SDS011;6454;43.304;24.344;2024-03-23T11:27:49;3.20;;;2.90;;
12780;SDS011;6454;43.304;24.344;2024-03-23T11:30:19;3.20;;;2.83;;
12780;SDS011;6454;43.304;24.344;2024-03-23T11:32:47;3.63;;;2.72;;
12780;SDS011;6454;43.304;24.344;2024-03-23T11:40:46;3.67;;;3.25;;
12780;SDS011;6454;43.304;24.344;2024-03-23T11:43:18;3.50;;;2.60;;
12780;SDS011;6454;43.304;24.344;2024-03-23T11:45:46;5.15;;;3.20;;
12780;SDS011;6454;43.304;24.344;2024-03-23T11:48:13;3.22;;;2.88;;
12780;SDS011;6454;43.304;24.344;2024-03-23T11:50:41;3.42;;;2.78;;
12780;SDS011;6454;43.304;24.344;2024-03-23T11:58:25;3.83;;;2.83;;
12780;SDS011;6454;43.304;24.344;2024-03-23T12:00:56;4.35;;;2.70;;
12780;SDS011;6454;43.304;24.344;2024-03-23T12:03:27;3.33;;;2.70;;
12780;SDS011;6454;43.304;24.344;2024-03-23T12:06:00;2.85;;;2.60;;
12780;SDS011;6454;43.304;24.344;2024-03-23T12:08:30;3.83;;;2.83;;
12780;SDS011;6454;43.304;24.344;2024-03-23T12:11:16;3.72;;;2.90;;
12780;SDS011;6454;43.304;24.344;2024-03-23T12:13:43;4.78;;;3.03;;
12780;SDS011;6454;43.304;24.344;2024-03-23T12:16:14;5.55;;;2.90;;
12780;SDS011;6454;43.304;24.344;2024-03-23T12:18:44;3.28;;;2.88;;
12780;SDS011;6454;43.304;24.344;2024-03-23T12:21:11;3.90;;;2.45;;
12780;SDS011;6454;43.304;24.344;2024-03-23T12:23:38;4.47;;;2.92;;
12780;SDS011;6454;43.304;24.344;2024-03-23T12:26:04;4.00;;;2.75;;
12780;SDS011;6454;43.304;24.344;2024-03-23T12:28:30;3.78;;;2.47;;
12780;SDS011;6454;43.304;24.344;2024-03-23T12:30:55;2.95;;;2.63;;
12780;SDS011;6454;43.304;24.344;2024-03-23T12:33:21;5.32;;;4.07;;
12780;SDS011;6454;43.304;24.344;2024-03-23T12:35:50;4.97;;;2.85;;
12780;SDS011;6454;43.304;24.344;2024-03-23T12:38:16;5.18;;;3.22;;
12780;SDS011;6454;43.304;24.344;2024-03-23T12:40:42;3.63;;;2.67;;
12780;SDS011;6454;43.304;24.344;2024-03-23T12:43:11;3.95;;;3.03;;
12780;SDS011;6454;43.304;24.344;2024-03-23T12:45:36;2.90;;;2.53;;
12780;SDS011;6454;43.304;24.344;2024-03-23T12:48:02;4.05;;;3.20;;
12780;SDS011;6454;43.304;24.344;2024-03-23T12:50:27;4.70;;;2.78;;
12780;SDS011;6454;43.304;24.344;2024-03-23T12:52:53;3.17;;;2.70;;
12780;SDS011;6454;43.304;24.344;2024-03-23T12:55:18;3.92;;;2.67;;
12780;SDS011;6454;43.304;24.344;2024-03-23T12:57:45;3.90;;;2.85;;
12780;SDS011;6454;43.304;24.344;2024-03-23T13:00:11;3.15;;;2.58;;
12780;SDS011;6454;43.304;24.344;2024-03-23T13:02:37;3.33;;;2.50;;
12780;SDS011;6454;43.304;24.344;2024-03-23T13:05:04;3.03;;;2.70;;
12780;SDS011;6454;43.304;24.344;2024-03-23T13:07:29;3.72;;;2.92;;
12780;SDS011;6454;43.304;24.344;2024-03-23T13:09:55;3.05;;;2.80;;
12780;SDS011;6454;43.304;24.344;2024-03-23T13:12:22;3.40;;;2.72;;
12780;SDS011;6454;43.304;24.344;2024-03-23T13:14:47;4.50;;;2.92;;
12780;SDS011;6454;43.304;24.344;2024-03-23T13:17:13;3.47;;;3.17;;
12780;SDS011;6454;43.304;24.344;2024-03-23T13:19:39;6.82;;;3.20;;
12780;SDS011;6454;43.304;24.344;2024-03-23T13:22:05;3.22;;;2.70;;
12780;SDS011;6454;43.304;24.344;2024-03-23T13:24:30;3.15;;;2.80;;
12780;SDS011;6454;43.304;24.344;2024-03-23T13:26:56;3.53;;;2.90;;
12780;SDS011;6454;43.304;24.344;2024-03-23T13:29:22;3.60;;;2.53;;
12780;SDS011;6454;43.304;24.344;2024-03-23T13:31:49;4.80;;;2.92;;
12780;SDS011;6454;43.304;24.344;2024-03-23T13:34:16;3.28;;;2.58;;
12780;SDS011;6454;43.304;24.344;2024-03-23T13:36:42;3.47;;;2.63;;
12780;SDS011;6454;43.304;24.344;2024-03-23T13:39:08;3.22;;;2.85;;
12780;SDS011;6454;43.304;24.344;2024-03-23T13:41:40;3.97;;;3.00;;
12780;SDS011;6454;43.304;24.344;2024-03-23T13:44:07;3.10;;;2.63;;
12780;SDS011;6454;43.304;24.344;2024-03-23T13:46:33;3.53;;;2.90;;
12780;SDS011;6454;43.304;24.344;2024-03-23T13:48:59;3.60;;;2.70;;
12780;SDS011;6454;43.304;24.344;2024-03-23T13:51:25;5.28;;;2.88;;
12780;SDS011;6454;43.304;24.344;2024-03-23T13:53:54;3.25;;;2.95;;
12780;SDS011;6454;43.304;24.344;2024-03-23T13:56:21;3.20;;;2.90;;
12780;SDS011;6454;43.304;24.344;2024-03-23T13:58:47;8.35;;;4.93;;
12780;SDS011;6454;43.304;24.344;2024-03-23T14:01:13;8.40;;;6.30;;
12780;SDS011;6454;43.304;24.344;2024-03-23T14:03:40;4.68;;;3.13;;
12780;SDS011;6454;43.304;24.344;2024-03-23T14:06:06;3.38;;;2.85;;
12780;SDS011;6454;43.304;24.344;2024-03-23T14:08:33;12.27;;;5.88;;
12780;SDS011;6454;43.304;24.344;2024-03-23T14:11:01;6.68;;;5.95;;
12780;SDS011;6454;43.304;24.344;2024-03-23T14:13:30;4.72;;;3.38;;
12780;SDS011;6454;43.304;24.344;2024-03-23T14:15:56;5.93;;;5.10;;
12780;SDS011;6454;43.304;24.344;2024-03-23T14:18:21;3.30;;;2.90;;
12780;SDS011;6454;43.304;24.344;2024-03-23T14:20:51;3.88;;;3.50;;
12780;SDS011;6454;43.304;24.344;2024-03-23T14:23:18;4.47;;;3.03;;
12780;SDS011;6454;43.304;24.344;2024-03-23T14:25:44;5.15;;;4.63;;
12780;SDS011;6454;43.304;24.344;2024-03-23T14:28:10;4.05;;;2.70;;
12780;SDS011;6454;43.304;24.344;2024-03-23T14:30:40;3.45;;;2.60;;
12780;SDS011;6454;43.304;24.344;2024-03-23T14:33:06;4.50;;;3.45;;
12780;SDS011;6454;43.304;24.344;2024-03-23T14:35:31;3.28;;;2.72;;
12780;SDS011;6454;43.304;24.344;2024-03-23T14:37:58;4.35;;;3.90;;
12780;SDS011;6454;43.304;24.344;2024-03-23T14:40:24;5.80;;;4.00;;
12780;SDS011;6454;43.304;24.344;2024-03-23T14:42:52;3.50;;;3.05;;
12780;SDS011;6454;43.304;24.344;2024-03-23T14:45:18;4.28;;;3.05;;
12780;SDS011;6454;43.304;24.344;2024-03-23T14:47:43;3.33;;;2.60;;
12780;SDS011;6454;43.304;24.344;2024-03-23T14:50:10;5.97;;;5.47;;
12780;SDS011;6454;43.304;24.344;2024-03-23T14:52:39;4.25;;;3.75;;
12780;SDS011;6454;43.304;24.344;2024-03-23T14:55:04;4.55;;;2.65;;
12780;SDS011;6454;43.304;24.344;2024-03-23T14:57:30;3.50;;;3.08;;
12780;SDS011;6454;43.304;24.344;2024-03-23T14:59:56;4.88;;;4.40;;
12780;SDS011;6454;43.304;24.344;2024-03-23T15:02:21;5.85;;;5.30;;
12780;SDS011;6454;43.304;24.344;2024-03-23T15:04:46;5.95;;;5.35;;
12780;SDS011;6454;43.304;24.344;2024-03-23T15:07:12;5.78;;;5.00;;
12780;SDS011;6454;43.304;24.344;2024-03-23T15:09:37;3.83;;;3.08;;
12780;SDS011;6454;43.304;24.344;2024-03-23T15:12:03;6.78;;;6.18;;
12780;SDS011;6454;43.304;24.344;2024-03-23T15:14:29;5.07;;;4.45;;
12780;SDS011;6454;43.304;24.344;2024-03-23T15:16:54;5.82;;;4.70;;
12780;SDS011;6454;43.304;24.344;2024-03-23T15:19:19;4.32;;;4.00;;
12780;SDS011;6454;43.304;24.344;2024-03-23T15:21:45;3.75;;;3.25;;
12780;SDS011;6454;43.304;24.344;2024-03-23T15:24:10;5.75;;;5.25;;
12780;SDS011;6454;43.304;24.344;2024-03-23T15:26:39;6.13;;;4.30;;
12780;SDS011;6454;43.304;24.344;2024-03-23T15:29:05;4.95;;;4.15;;
12780;SDS011;6454;43.304;24.344;2024-03-23T15:31:41;5.97;;;4.43;;
12780;SDS011;6454;43.304;24.344;2024-03-23T15:34:07;5.60;;;4.65;;
12780;SDS011;6454;43.304;24.344;2024-03-23T15:36:35;7.30;;;3.17;;
12780;SDS011;6454;43.304;24.344;2024-03-23T15:39:03;5.38;;;4.57;;
12780;SDS011;6454;43.304;24.344;2024-03-23T15:41:29;4.05;;;3.65;;
12780;SDS011;6454;43.304;24.344;2024-03-23T15:43:55;3.92;;;3.20;;
12780;SDS011;6454;43.304;24.344;2024-03-23T15:46:20;4.80;;;3.10;;
12780;SDS011;6454;43.304;24.344;2024-03-23T15:48:46;3.92;;;2.50;;
12780;SDS011;6454;43.304;24.344;2024-03-23T15:51:12;2.97;;;2.63;;
12780;SDS011;6454;43.304;24.344;2024-03-23T15:53:38;5.47;;;4.07;;
12780;SDS011;6454;43.304;24.344;2024-03-23T15:56:03;5.35;;;3.60;;
12780;SDS011;6454;43.304;24.344;2024-03-23T15:58:30;5.22;;;3.55;;
12780;SDS011;6454;43.304;24.344;2024-03-23T16:03:22;8.30;;;4.60;;
12780;SDS011;6454;43.304;24.344;2024-03-23T16:05:52;5.97;;;4.22;;
12780;SDS011;6454;43.304;24.344;2024-03-23T16:08:19;9.68;;;5.20;;
12780;SDS011;6454;43.304;24.344;2024-03-23T16:10:45;9.32;;;6.50;;
12780;SDS011;6454;43.304;24.344;2024-03-23T16:13:10;18.92;;;12.55;;
12780;SDS011;6454;43.304;24.344;2024-03-23T16:15:36;28.35;;;13.50;;
12780;SDS011;6454;43.304;24.344;2024-03-23T16:18:01;14.50;;;9.65;;
12780;SDS011;6454;43.304;24.344;2024-03-23T16:20:27;18.58;;;9.52;;
12780;SDS011;6454;43.304;24.344;2024-03-23T16:22:53;14.38;;;9.25;;
12780;SDS011;6454;43.304;24.344;2024-03-23T16:25:18;14.75;;;8.48;;
12780;SDS011;6454;43.304;24.344;2024-03-23T16:27:44;11.73;;;7.85;;
12780;SDS011;6454;43.304;24.344;2024-03-23T16:30:09;26.33;;;15.05;;
12780;SDS011;6454;43.304;24.344;2024-03-23T16:32:36;22.00;;;12.05;;
12780;SDS011;6454;43.304;24.344;2024-03-23T16:35:02;24.13;;;11.18;;
12780;SDS011;6454;43.304;24.344;2024-03-23T16:37:28;13.70;;;7.65;;
12780;SDS011;6454;43.304;24.344;2024-03-23T16:39:54;10.88;;;6.15;;
12780;SDS011;6454;43.304;24.344;2024-03-23T16:42:19;12.85;;;6.28;;
12780;SDS011;6454;43.304;24.344;2024-03-23T16:44:46;8.82;;;5.05;;
12780;SDS011;6454;43.304;24.344;2024-03-23T16:47:11;11.02;;;4.72;;
12780;SDS011;6454;43.304;24.344;2024-03-23T16:49:37;8.30;;;5.10;;
12780;SDS011;6454;43.304;24.344;2024-03-23T16:52:03;7.53;;;5.18;;
12780;SDS011;6454;43.304;24.344;2024-03-23T16:54:29;6.32;;;4.60;;
12780;SDS011;6454;43.304;24.344;2024-03-23T16:56:54;8.30;;;4.88;;
12780;SDS011;6454;43.304;24.344;2024-03-23T16:59:20;6.85;;;4.40;;
12780;SDS011;6454;43.304;24.344;2024-03-23T17:01:46;8.07;;;4.82;;
12780;SDS011;6454;43.304;24.344;2024-03-23T17:04:12;8.32;;;5.10;;
12780;SDS011;6454;43.304;24.344;2024-03-23T17:06:37;7.15;;;4.70;;
12780;SDS011;6454;43.304;24.344;2024-03-23T17:09:04;8.20;;;4.00;;
12780;SDS011;6454;43.304;24.344;2024-03-23T17:11:32;26.60;;;12.13;;
12780;SDS011;6454;43.304;24.344;2024-03-23T17:13:58;32.78;;;18.23;;
12780;SDS011;6454;43.304;24.344;2024-03-23T17:16:23;16.33;;;8.70;;
12780;SDS011;6454;43.304;24.344;2024-03-23T17:18:50;5.57;;;3.40;;
12780;SDS011;6454;43.304;24.344;2024-03-23T17:21:17;8.45;;;3.78;;
12780;SDS011;6454;43.304;24.344;2024-03-23T17:23:42;6.93;;;3.92;;
12780;SDS011;6454;43.304;24.344;2024-03-23T17:26:11;12.02;;;3.78;;